createdAt,value
2023-11-23T00:04:38.008Z,101853.16
2023-11-23T00:09:40.787Z,101850.69
2023-11-23T00:14:43.068Z,101848.66
2023-11-23T00:19:48.476Z,101863.72
2023-11-23T00:24:51.000Z,101847.41
2023-11-23T00:29:53.386Z,101844.53
2023-11-23T00:34:55.445Z,101848.19
2023-11-23T00:39:57.689Z,101837.69
2023-11-23T00:44:59.706Z,101846.28
2023-11-23T00:50:01.961Z,101860.88
2023-11-23T00:55:07.275Z,101868.41
2023-11-23T01:00:10.407Z,101869.28
2023-11-23T01:05:13.029Z,101869.94
2023-11-23T01:10:15.297Z,101869.28
2023-11-23T01:15:17.956Z,101875.44
2023-11-23T01:20:20.390Z,101891.72
2023-11-23T01:25:22.899Z,101883.44
2023-11-23T01:30:24.899Z,101883.34
2023-11-23T01:35:27.366Z,101900.19
2023-11-23T01:40:30.725Z,101889.19
2023-11-23T01:45:33.119Z,101904.38
2023-11-23T01:50:36.833Z,101887.66
2023-11-23T01:55:39.379Z,101895.25
2023-11-23T02:05:13.489Z,101897.03
2023-11-23T02:10:16.089Z,101913.28
2023-11-23T02:15:21.333Z,101913.78
2023-11-23T02:20:23.383Z,101919.13
2023-11-23T02:25:26.841Z,101927.31
2023-11-23T02:30:29.180Z,101927.31
2023-11-23T02:35:31.292Z,101945.22
2023-11-23T02:40:33.597Z,101940.22
2023-11-23T02:45:36.173Z,101929.81
2023-11-23T02:50:38.396Z,101931.13
2023-11-23T02:55:40.370Z,101937.19
2023-11-23T03:00:42.522Z,101932.91
2023-11-23T03:05:44.683Z,101936.91
2023-11-23T03:10:47.266Z,101927.78
2023-11-23T03:15:52.689Z,101946.63
2023-11-23T03:20:54.983Z,101942.38
2023-11-23T03:25:57.271Z,101945.81
2023-11-23T03:31:00.575Z,101950.91
2023-11-23T03:36:02.746Z,101959.91
2023-11-23T03:41:05.450Z,101968.06
2023-11-23T03:46:07.610Z,101967.47
2023-11-23T03:51:13.732Z,101972.56
2023-11-23T03:56:16.381Z,101965.09
2023-11-23T04:01:20.019Z,101961.03
2023-11-23T04:06:22.339Z,101982.38
2023-11-23T04:11:24.759Z,101975.88
2023-11-23T04:16:27.113Z,101990.09
2023-11-23T04:21:29.027Z,101984.06
2023-11-23T04:26:32.840Z,101977.75
2023-11-23T04:31:34.989Z,101985.13
2023-11-23T04:36:38.011Z,101970.88
2023-11-23T04:41:40.261Z,101978.25
2023-11-23T04:46:42.463Z,101994.03
2023-11-23T04:51:44.608Z,101987.50
2023-11-23T04:56:51.793Z,101999.25
2023-11-23T05:08:02.712Z,102006.16
2023-11-23T05:13:05.099Z,101992.59
2023-11-23T05:32:25.991Z,101985.28
2023-11-23T05:37:28.116Z,102004.63
2023-11-23T05:42:31.763Z,102000.31
2023-11-23T05:47:33.962Z,102004.09
2023-11-23T05:52:36.277Z,101987.28
2023-11-23T05:57:38.074Z,101981.97
2023-11-23T06:02:42.385Z,101987.19
2023-11-23T06:07:44.588Z,102004.63
2023-11-23T06:12:47.030Z,102007.09
2023-11-23T06:17:55.719Z,102006.28
2023-11-23T06:23:03.477Z,102018.25
2023-11-23T06:28:14.586Z,102017.66
2023-11-23T06:33:18.174Z,102022.13
2023-11-23T06:38:20.592Z,102023.41
2023-11-23T06:43:22.458Z,102018.91
2023-11-23T06:48:24.475Z,102022.09
2023-11-23T06:53:26.962Z,102021.97
2023-11-23T06:58:29.356Z,102031.22
2023-11-23T07:03:31.363Z,102031.22
2023-11-23T07:08:38.864Z,102037.72
2023-11-23T07:13:40.954Z,102036.91
2023-11-23T07:18:43.539Z,102043.91
2023-11-23T07:23:46.008Z,102045.50
2023-11-23T07:28:49.211Z,102051.56
2023-11-23T07:33:51.591Z,102050.00
2023-11-23T07:38:54.069Z,102041.72
2023-11-23T07:43:59.041Z,102052.13
2023-11-23T07:49:01.446Z,102061.63
2023-11-23T07:54:03.665Z,102059.97
2023-11-23T07:59:05.723Z,102055.91
2023-11-23T08:04:08.028Z,102074.91
2023-11-23T08:09:16.718Z,102077.38
2023-11-23T08:14:18.964Z,102086.41
2023-11-23T08:19:23.353Z,102093.28
2023-11-23T08:24:25.661Z,102096.72
2023-11-23T08:29:31.172Z,102089.91
2023-11-23T08:34:33.703Z,102099.34
2023-11-23T08:39:41.551Z,102094.97
2023-11-23T08:44:45.213Z,102105.22
2023-11-23T08:49:47.852Z,102112.69
2023-11-23T08:54:50.094Z,102101.06
2023-11-23T08:59:52.399Z,102116.13
2023-11-23T09:04:55.128Z,102111.25
2023-11-23T09:09:57.673Z,102121.09
2023-11-23T09:15:00.728Z,102104.63
2023-11-23T09:20:03.097Z,102103.91
2023-11-23T09:25:07.830Z,102112.78
2023-11-23T09:30:11.471Z,102107.25
2023-11-23T09:35:13.649Z,102099.59
2023-11-23T09:40:19.288Z,102093.66
2023-11-23T09:45:24.259Z,102092.94
2023-11-23T09:50:30.923Z,102092.69
2023-11-23T09:55:34.619Z,102092.78
2023-11-23T10:00:37.308Z,102087.75
2023-11-23T10:05:40.076Z,102091.56
2023-11-23T10:10:42.296Z,102080.97
2023-11-23T10:15:48.991Z,102082.50
2023-11-23T10:20:53.147Z,102069.25
2023-11-23T10:25:57.658Z,102056.03
2023-11-23T10:31:05.448Z,102055.91
2023-11-23T10:36:08.320Z,102052.19
2023-11-23T10:41:11.376Z,102039.47
2023-11-23T10:46:14.681Z,102028.19
2023-11-23T10:51:18.067Z,102037.91
2023-11-23T10:56:25.991Z,102040.38
2023-11-23T11:01:31.029Z,102035.97
2023-11-23T11:06:43.136Z,102031.00
2023-11-23T11:11:46.633Z,102020.50
2023-11-23T11:16:48.736Z,102012.13
2023-11-23T11:21:52.132Z,102013.81
2023-11-23T11:27:05.002Z,101990.72
2023-11-23T11:32:09.886Z,101975.41
2023-11-23T11:37:13.340Z,101972.63
2023-11-23T11:42:17.163Z,101959.41
2023-11-23T11:47:19.334Z,101958.78
2023-11-23T11:52:21.649Z,101951.56
2023-11-23T11:57:23.819Z,101946.16
2023-11-23T12:02:26.025Z,101933.81
2023-11-23T12:07:28.436Z,101922.72
2023-11-23T12:12:32.508Z,101918.81
2023-11-23T12:17:34.628Z,101911.22
2023-11-23T12:22:36.707Z,101899.66
2023-11-23T12:27:42.510Z,101892.22
2023-11-23T12:32:44.606Z,101889.44
2023-11-23T12:37:46.893Z,101874.31
2023-11-23T12:42:49.257Z,101867.94
2023-11-23T12:47:52.395Z,101863.59
2023-11-23T12:52:54.645Z,101854.34
2023-11-23T12:57:56.831Z,101846.53
2023-11-23T13:03:00.001Z,101833.97
2023-11-23T13:08:05.467Z,101838.06
2023-11-23T13:13:07.702Z,101834.63
2023-11-23T13:18:09.916Z,101831.69
2023-11-23T13:23:12.187Z,101837.13
2023-11-23T13:28:14.879Z,101821.47
2023-11-23T13:33:23.957Z,101823.88
2023-11-23T13:38:26.161Z,101819.44
2023-11-23T13:43:28.555Z,101821.09
2023-11-23T13:48:32.674Z,101823.16
2023-11-23T13:53:34.873Z,101810.38
2023-11-23T13:58:37.681Z,101804.41
2023-11-23T14:03:40.119Z,101798.34
2023-11-23T14:08:42.644Z,101808.34
2023-11-23T14:13:46.502Z,101796.31
2023-11-23T14:18:48.978Z,101795.81
2023-11-23T14:23:51.270Z,101792.31
2023-11-23T14:28:54.398Z,101793.19
2023-11-23T14:33:56.667Z,101786.63
2023-11-23T14:38:59.543Z,101786.72
2023-11-23T14:44:01.890Z,101789.69
2023-11-23T14:49:06.505Z,101790.59
2023-11-23T14:54:14.482Z,101788.94
2023-11-23T14:59:18.755Z,101777.84
2023-11-23T15:04:21.009Z,101773.63
2023-11-23T15:09:23.122Z,101780.69
2023-11-23T15:14:25.401Z,101768.63
2023-11-23T15:19:27.504Z,101765.53
2023-11-23T15:24:29.749Z,101759.75
2023-11-23T15:29:32.048Z,101759.97
2023-11-23T15:34:34.332Z,101763.63
2023-11-23T15:39:36.520Z,101764.78
2023-11-23T15:44:39.483Z,101763.94
2023-11-23T15:49:41.640Z,101765.59
2023-11-23T15:54:44.560Z,101763.06
2023-11-23T15:59:47.187Z,101756.34
2023-11-23T16:04:49.359Z,101763.41
2023-11-23T16:09:51.562Z,101755.84
2023-11-23T16:14:55.724Z,101757.66
2023-11-23T16:19:59.663Z,101755.59
2023-11-23T16:25:03.612Z,101762.88
2023-11-23T16:30:07.231Z,101760.19
2023-11-23T16:35:12.129Z,101768.25
2023-11-23T16:40:16.067Z,101755.38
2023-11-23T16:45:18.436Z,101755.97
2023-11-23T16:50:20.883Z,101757.94
2023-11-23T16:55:23.588Z,101763.75
2023-11-23T17:00:27.645Z,101763.50
2023-11-23T17:05:32.582Z,101768.47
2023-11-23T17:10:34.976Z,101773.44
2023-11-23T17:15:38.312Z,101770.97
2023-11-23T17:20:40.861Z,101778.13
2023-11-23T17:25:43.597Z,101779.50
2023-11-23T17:30:45.930Z,101783.06
2023-11-23T17:35:48.115Z,101777.56
2023-11-23T17:40:50.604Z,101771.53
2023-11-23T17:45:54.218Z,101758.59
2023-11-23T17:50:56.436Z,101754.50
2023-11-23T17:56:00.410Z,101755.03
2023-11-23T18:01:02.624Z,101747.63
2023-11-23T18:06:06.659Z,101756.41
2023-11-23T18:11:09.026Z,101758.84
2023-11-23T18:16:13.125Z,101758.84
2023-11-23T18:21:15.497Z,101762.88
2023-11-23T18:26:18.021Z,101776.84
2023-11-23T18:31:23.458Z,101788.63
2023-11-23T18:36:25.613Z,101789.44
2023-11-23T18:41:27.686Z,101784.47
2023-11-23T18:46:29.724Z,101796.81
2023-11-23T18:51:32.276Z,101792.09
2023-11-23T18:56:35.638Z,101795.34
2023-11-23T19:01:38.846Z,101790.13
2023-11-23T19:06:42.102Z,101795.84
2023-11-23T19:11:45.427Z,101777.72
2023-11-23T19:16:48.139Z,101779.88
2023-11-23T19:21:51.232Z,101774.88
2023-11-23T19:26:54.242Z,101772.66
2023-11-23T19:31:57.526Z,101766.03
2023-11-23T19:37:00.892Z,101750.66
2023-11-23T19:42:05.284Z,101739.13
2023-11-23T19:47:07.852Z,101742.38
2023-11-23T19:52:15.173Z,101738.00
2023-11-23T19:57:17.440Z,101726.47
2023-11-23T20:02:19.700Z,101730.84
2023-11-23T20:07:21.734Z,101722.28
2023-11-23T20:12:25.593Z,101729.13
2023-11-23T20:17:27.999Z,101736.47
2023-11-23T20:22:30.177Z,101742.47
2023-11-23T20:27:32.214Z,101747.66
2023-11-23T20:32:34.325Z,101740.53
2023-11-23T20:37:36.956Z,101732.84
2023-11-23T20:42:40.198Z,101742.69
2023-11-23T20:47:43.563Z,101724.63
2023-11-23T20:52:45.600Z,101724.34
2023-11-23T20:57:48.885Z,101708.75
2023-11-23T21:02:51.644Z,101706.88
2023-11-23T21:07:54.667Z,101709.91
2023-11-23T21:12:56.763Z,101702.25
2023-11-23T21:17:59.016Z,101698.44
2023-11-23T21:23:01.298Z,101708.84
2023-11-23T21:28:03.086Z,101709.94
2023-11-23T21:33:07.929Z,101703.94
2023-11-23T21:38:11.556Z,101703.63
2023-11-23T21:43:13.705Z,101699.25
2023-11-23T21:48:15.765Z,101691.81
2023-11-23T21:53:18.133Z,101688.53
2023-11-23T22:04:53.209Z,101677.78
2023-11-23T22:09:55.347Z,101676.38
2023-11-23T22:14:57.694Z,101678.56
2023-11-23T22:19:59.844Z,101678.00
2023-11-23T22:25:02.369Z,101667.56
2023-11-23T22:37:20.139Z,101653.59
2023-11-23T22:42:51.461Z,101651.13
2023-11-23T22:48:14.159Z,101634.13
2023-11-23T23:21:28.381Z,101621.41
2023-11-23T23:32:52.129Z,101614.25
2023-11-23T23:38:23.025Z,101621.81
2023-11-23T23:44:10.492Z,101623.91
